sensor_id;sensor_type;location;lat;lon;timestamp;pressure;altitude;pressure_sealevel;temperature;humidity
55679;BME280;41573;51.446;-2.018;2023-03-14T12:28:39;93863.97;;;8.68;100.00
55679;BME280;41573;51.446;-2.018;2023-03-14T12:41:52;94190.50;;;8.53;100.00
55679;BME280;41573;51.446;-2.018;2023-03-14T12:46:59;94387.59;;;8.04;100.00
55679;BME280;41573;51.446;-2.018;2023-03-14T12:49:32;94431.41;;;8.19;100.00
55679;BME280;41573;51.446;-2.018;2023-03-14T12:52:01;94404.13;;;8.30;100.00
55679;BME280;41573;51.446;-2.018;2023-03-14T12:57:24;94576.44;;;8.35;100.00
55679;BME280;41573;51.446;-2.018;2023-03-14T13:02:41;94625.81;;;8.78;100.00
55679;BME280;41573;51.446;-2.018;2023-03-14T13:05:22;94793.00;;;8.84;100.00
55679;BME280;41573;51.446;-2.018;2023-03-14T13:10:45;94745.16;;;9.21;100.00
55679;BME280;41573;51.446;-2.018;2023-03-14T13:13:45;94897.66;;;9.00;100.00
55679;BME280;41573;51.446;-2.018;2023-03-14T13:18:49;94932.50;;;9.22;100.00
55679;BME280;41573;51.446;-2.018;2023-03-14T13:21:25;94956.91;;;9.12;100.00
55679;BME280;41573;51.446;-2.018;2023-03-14T13:24:06;94970.63;;;9.09;100.00
55679;BME280;41573;51.446;-2.018;2023-03-14T13:26:37;94906.44;;;9.19;100.00
55679;BME280;41573;51.446;-2.018;2023-03-14T13:29:28;94986.59;;;9.39;100.00
55679;BME280;41573;51.446;-2.018;2023-03-14T13:31:56;95088.34;;;9.33;100.00
55679;BME280;41573;51.446;-2.018;2023-03-14T13:34:25;95073.34;;;9.45;100.00
55679;BME280;41573;51.446;-2.018;2023-03-14T13:36:54;95057.03;;;9.60;100.00
55679;BME280;41573;51.446;-2.018;2023-03-14T13:39:22;95026.41;;;9.58;100.00
55679;BME280;41573;51.446;-2.018;2023-03-14T13:41:50;95170.31;;;9.48;100.00
55679;BME280;41573;51.446;-2.018;2023-03-14T13:44:23;95314.41;;;9.30;100.00
55679;BME280;41573;51.446;-2.018;2023-03-14T13:46:49;95321.25;;;9.12;100.00
55679;BME280;41573;51.446;-2.018;2023-03-14T13:49:22;95342.59;;;8.72;100.00
55679;BME280;41573;51.446;-2.018;2023-03-14T13:51:49;95346.69;;;8.68;100.00
55679;BME280;41573;51.446;-2.018;2023-03-14T13:54:16;95338.16;;;8.66;100.00
55679;BME280;41573;51.446;-2.018;2023-03-14T13:56:42;95309.22;;;8.58;100.00
55679;BME280;41573;51.446;-2.018;2023-03-14T13:59:40;95254.41;;;8.45;100.00
55679;BME280;41573;51.446;-2.018;2023-03-14T14:02:13;95238.66;;;8.57;100.00
55679;BME280;41573;51.446;-2.018;2023-03-14T14:04:40;95256.53;;;8.68;100.00
55679;BME280;41573;51.446;-2.018;2023-03-14T14:07:08;95271.09;;;8.97;100.00
55679;BME280;41573;51.446;-2.018;2023-03-14T14:09:42;95229.72;;;9.22;100.00
55679;BME280;41573;51.446;-2.018;2023-03-14T14:12:17;95356.69;;;9.18;100.00
55679;BME280;41573;51.446;-2.018;2023-03-14T14:15:05;95524.97;;;8.90;100.00
55679;BME280;41573;51.446;-2.018;2023-03-14T14:17:40;95619.63;;;8.63;100.00
55679;BME280;41573;51.446;-2.018;2023-03-14T14:20:35;95620.41;;;8.57;100.00
55679;BME280;41573;51.446;-2.018;2023-03-14T14:23:05;95645.22;;;8.42;100.00
55679;BME280;41573;51.446;-2.018;2023-03-14T14:25:32;95698.22;;;8.29;100.00
55679;BME280;41573;51.446;-2.018;2023-03-14T14:27:58;95657.78;;;8.75;100.00
55679;BME280;41573;51.446;-2.018;2023-03-14T14:30:32;95601.56;;;9.72;100.00
55679;BME280;41573;51.446;-2.018;2023-03-14T14:33:18;95693.91;;;9.63;100.00
55679;BME280;41573;51.446;-2.018;2023-03-14T14:36:15;95766.22;;;9.32;100.00
55679;BME280;41573;51.446;-2.018;2023-03-14T14:38:42;95879.66;;;9.03;100.00
55679;BME280;41573;51.446;-2.018;2023-03-14T14:41:11;95896.09;;;8.85;100.00
55679;BME280;41573;51.446;-2.018;2023-03-14T14:43:39;95847.91;;;8.75;100.00
55679;BME280;41573;51.446;-2.018;2023-03-14T14:46:07;95813.03;;;8.71;100.00
55679;BME280;41573;51.446;-2.018;2023-03-14T14:48:37;95776.84;;;8.57;100.00
55679;BME280;41573;51.446;-2.018;2023-03-14T14:51:05;95801.44;;;8.44;100.00
55679;BME280;41573;51.446;-2.018;2023-03-14T14:53:39;95751.59;;;8.68;100.00
55679;BME280;41573;51.446;-2.018;2023-03-14T14:56:19;95777.91;;;8.69;100.00
55679;BME280;41573;51.446;-2.018;2023-03-14T14:58:48;95824.78;;;9.10;100.00
55679;BME280;41573;51.446;-2.018;2023-03-14T15:01:19;95840.22;;;9.69;100.00
55679;BME280;41573;51.446;-2.018;2023-03-14T15:03:50;95982.28;;;9.31;100.00
55679;BME280;41573;51.446;-2.018;2023-03-14T15:06:16;96115.22;;;9.01;100.00
55679;BME280;41573;51.446;-2.018;2023-03-14T15:08:43;96119.78;;;9.14;100.00
55679;BME280;41573;51.446;-2.018;2023-03-14T15:11:16;96121.13;;;9.31;100.00
55679;BME280;41573;51.446;-2.018;2023-03-14T15:13:44;96065.66;;;9.43;100.00
55679;BME280;41573;51.446;-2.018;2023-03-14T15:16:15;96049.25;;;9.33;100.00
55679;BME280;41573;51.446;-2.018;2023-03-14T15:18:42;96022.47;;;9.70;100.00
55679;BME280;41573;51.446;-2.018;2023-03-14T15:21:09;95993.59;;;10.75;100.00
55679;BME280;41573;51.446;-2.018;2023-03-14T15:23:35;95958.63;;;11.96;100.00
55679;BME280;41573;51.446;-2.018;2023-03-14T15:26:00;96103.44;;;12.67;100.00
55679;BME280;41573;51.446;-2.018;2023-03-14T15:28:28;96304.53;;;11.87;100.00
55679;BME280;41573;51.446;-2.018;2023-03-14T15:30:56;96375.22;;;10.94;100.00
55679;BME280;41573;51.446;-2.018;2023-03-14T15:33:22;96400.41;;;10.07;100.00
55679;BME280;41573;51.446;-2.018;2023-03-14T15:35:49;96400.50;;;9.34;100.00
55679;BME280;41573;51.446;-2.018;2023-03-14T15:38:18;96411.22;;;8.89;100.00
55679;BME280;41573;51.446;-2.018;2023-03-14T15:40:48;96318.13;;;9.05;100.00
55679;BME280;41573;51.446;-2.018;2023-03-14T15:43:14;96224.75;;;8.95;100.00
55679;BME280;41573;51.446;-2.018;2023-03-14T15:45:40;96118.25;;;8.76;100.00
55679;BME280;41573;51.446;-2.018;2023-03-14T15:48:08;96046.75;;;9.25;100.00
55679;BME280;41573;51.446;-2.018;2023-03-14T15:50:37;96041.38;;;10.01;100.00
55679;BME280;41573;51.446;-2.018;2023-03-14T15:53:02;95998.91;;;10.95;100.00
55679;BME280;41573;51.446;-2.018;2023-03-14T15:55:27;96052.09;;;11.29;100.00
55679;BME280;41573;51.446;-2.018;2023-03-14T15:57:53;96120.72;;;11.13;100.00
55679;BME280;41573;51.446;-2.018;2023-03-14T16:00:20;96186.19;;;10.74;100.00
55679;BME280;41573;51.446;-2.018;2023-03-14T16:02:47;96190.78;;;10.39;100.00
55679;BME280;41573;51.446;-2.018;2023-03-14T16:05:13;96174.22;;;9.95;100.00
55679;BME280;41573;51.446;-2.018;2023-03-14T16:07:39;96146.25;;;9.64;100.00
55679;BME280;41573;51.446;-2.018;2023-03-14T16:10:06;96118.34;;;9.46;100.00
55679;BME280;41573;51.446;-2.018;2023-03-14T16:12:33;96035.19;;;9.39;100.00
55679;BME280;41573;51.446;-2.018;2023-03-14T16:14:59;96099.38;;;9.14;100.00
55679;BME280;41573;51.446;-2.018;2023-03-14T16:17:24;96095.59;;;9.02;100.00
55679;BME280;41573;51.446;-2.018;2023-03-14T16:19:49;96182.78;;;8.84;100.00
55679;BME280;41573;51.446;-2.018;2023-03-14T16:22:15;96214.25;;;8.87;100.00
55679;BME280;41573;51.446;-2.018;2023-03-14T16:24:40;96281.66;;;8.92;100.00
55679;BME280;41573;51.446;-2.018;2023-03-14T16:27:06;96309.25;;;8.98;100.00
55679;BME280;41573;51.446;-2.018;2023-03-14T16:29:31;96336.44;;;9.00;100.00
55679;BME280;41573;51.446;-2.018;2023-03-14T16:31:57;96324.41;;;9.19;100.00
55679;BME280;41573;51.446;-2.018;2023-03-14T16:34:22;96363.97;;;9.14;100.00
55679;BME280;41573;51.446;-2.018;2023-03-14T16:36:48;96377.44;;;8.97;100.00
55679;BME280;41573;51.446;-2.018;2023-03-14T16:39:19;96347.34;;;8.75;100.00
55679;BME280;41573;51.446;-2.018;2023-03-14T16:41:44;96385.75;;;8.35;100.00
55679;BME280;41573;51.446;-2.018;2023-03-14T16:44:10;96355.03;;;8.25;100.00
55679;BME280;41573;51.446;-2.018;2023-03-14T16:46:35;96233.56;;;8.29;100.00
55679;BME280;41573;51.446;-2.018;2023-03-14T16:49:02;96207.78;;;8.23;100.00
55679;BME280;41573;51.446;-2.018;2023-03-14T16:51:28;96217.22;;;8.10;100.00
55679;BME280;41573;51.446;-2.018;2023-03-14T16:53:54;96264.91;;;7.96;100.00
55679;BME280;41573;51.446;-2.018;2023-03-14T16:56:20;96298.97;;;7.84;100.00
55679;BME280;41573;51.446;-2.018;2023-03-14T16:58:47;96316.97;;;7.88;100.00
55679;BME280;41573;51.446;-2.018;2023-03-14T17:01:17;96322.00;;;7.98;100.00
55679;BME280;41573;51.446;-2.018;2023-03-14T17:03:48;96254.25;;;8.19;100.00
55679;BME280;41573;51.446;-2.018;2023-03-14T17:06:16;96180.00;;;8.49;100.00
55679;BME280;41573;51.446;-2.018;2023-03-14T17:08:42;96221.75;;;8.61;100.00
55679;BME280;41573;51.446;-2.018;2023-03-14T17:11:09;96324.34;;;8.46;100.00
55679;BME280;41573;51.446;-2.018;2023-03-14T17:13:35;96383.81;;;8.28;100.00
55679;BME280;41573;51.446;-2.018;2023-03-14T17:16:02;96403.75;;;8.39;100.00
55679;BME280;41573;51.446;-2.018;2023-03-14T17:18:29;96397.47;;;8.55;100.00
55679;BME280;41573;51.446;-2.018;2023-03-14T17:20:56;96398.13;;;8.72;100.00
55679;BME280;41573;51.446;-2.018;2023-03-14T17:23:24;96421.16;;;8.87;100.00
55679;BME280;41573;51.446;-2.018;2023-03-14T17:25:51;96449.09;;;8.97;100.00
55679;BME280;41573;51.446;-2.018;2023-03-14T17:28:18;96522.34;;;8.84;100.00
55679;BME280;41573;51.446;-2.018;2023-03-14T17:31:06;96677.81;;;8.38;100.00
55679;BME280;41573;51.446;-2.018;2023-03-14T17:33:32;96692.50;;;8.18;100.00
55679;BME280;41573;51.446;-2.018;2023-03-14T17:35:58;96790.47;;;7.86;100.00
55679;BME280;41573;51.446;-2.018;2023-03-14T17:38:26;96753.59;;;7.76;100.00
55679;BME280;41573;51.446;-2.018;2023-03-14T17:40:53;96713.53;;;7.71;100.00
55679;BME280;41573;51.446;-2.018;2023-03-14T17:43:46;96655.63;;;7.60;100.00
55679;BME280;41573;51.446;-2.018;2023-03-14T17:46:15;96683.84;;;7.20;100.00
55679;BME280;41573;51.446;-2.018;2023-03-14T17:48:50;96695.06;;;6.81;100.00
55679;BME280;41573;51.446;-2.018;2023-03-14T17:51:17;96657.22;;;6.64;100.00
55679;BME280;41573;51.446;-2.018;2023-03-14T17:53:43;96614.25;;;6.37;100.00
55679;BME280;41573;51.446;-2.018;2023-03-14T17:56:09;96573.78;;;6.28;100.00
55679;BME280;41573;51.446;-2.018;2023-03-14T17:58:44;96550.63;;;6.14;100.00
55679;BME280;41573;51.446;-2.018;2023-03-14T18:01:17;96522.22;;;5.99;100.00
55679;BME280;41573;51.446;-2.018;2023-03-14T18:03:45;96474.34;;;5.94;100.00
55679;BME280;41573;51.446;-2.018;2023-03-14T18:06:15;96454.84;;;5.95;100.00
55679;BME280;41573;51.446;-2.018;2023-03-14T18:08:45;96398.25;;;5.81;100.00
55679;BME280;41573;51.446;-2.018;2023-03-14T18:11:15;96331.41;;;5.73;100.00
55679;BME280;41573;51.446;-2.018;2023-03-14T18:13:44;96241.19;;;5.69;100.00
55679;BME280;41573;51.446;-2.018;2023-03-14T18:16:13;96146.69;;;5.64;100.00
55679;BME280;41573;51.446;-2.018;2023-03-14T18:18:49;96066.19;;;5.60;100.00
55679;BME280;41573;51.446;-2.018;2023-03-14T18:21:16;96025.31;;;5.56;100.00
55679;BME280;41573;51.446;-2.018;2023-03-14T18:23:49;95961.84;;;5.49;100.00
55679;BME280;41573;51.446;-2.018;2023-03-14T18:26:15;95930.72;;;5.45;100.00
55679;BME280;41573;51.446;-2.018;2023-03-14T18:28:41;95882.56;;;5.43;100.00
55679;BME280;41573;51.446;-2.018;2023-03-14T18:31:14;95860.66;;;5.42;100.00
55679;BME280;41573;51.446;-2.018;2023-03-14T18:33:41;95829.19;;;5.41;100.00
55679;BME280;41573;51.446;-2.018;2023-03-14T18:36:14;95800.69;;;5.36;100.00
55679;BME280;41573;51.446;-2.018;2023-03-14T18:39:03;95778.47;;;5.30;100.00
55679;BME280;41573;51.446;-2.018;2023-03-14T18:41:55;95749.66;;;5.29;100.00
55679;BME280;41573;51.446;-2.018;2023-03-14T18:44:36;95712.38;;;5.32;100.00
55679;BME280;41573;51.446;-2.018;2023-03-14T18:47:05;95688.81;;;5.30;100.00
55679;BME280;41573;51.446;-2.018;2023-03-14T18:49:31;95664.41;;;5.28;100.00
55679;BME280;41573;51.446;-2.018;2023-03-14T18:51:58;95646.31;;;5.25;100.00
55679;BME280;41573;51.446;-2.018;2023-03-14T18:54:55;95606.13;;;5.23;100.00
55679;BME280;41573;51.446;-2.018;2023-03-14T18:57:24;95563.38;;;5.28;100.00
55679;BME280;41573;51.446;-2.018;2023-03-14T18:59:50;95542.72;;;5.31;100.00
55679;BME280;41573;51.446;-2.018;2023-03-14T19:02:23;95485.06;;;5.28;100.00
55679;BME280;41573;51.446;-2.018;2023-03-14T19:04:49;95419.63;;;5.17;100.00
55679;BME280;41573;51.446;-2.018;2023-03-14T19:07:20;95352.25;;;5.14;100.00
55679;BME280;41573;51.446;-2.018;2023-03-14T19:09:51;95325.47;;;5.11;100.00
55679;BME280;41573;51.446;-2.018;2023-03-14T19:12:20;95286.91;;;5.10;100.00
55679;BME280;41573;51.446;-2.018;2023-03-14T19:14:47;95273.03;;;5.01;100.00
55679;BME280;41573;51.446;-2.018;2023-03-14T19:17:24;95243.47;;;5.06;100.00
55679;BME280;41573;51.446;-2.018;2023-03-14T19:22:59;95139.47;;;5.08;100.00
55679;BME280;41573;51.446;-2.018;2023-03-14T19:25:34;95124.84;;;5.06;100.00
55679;BME280;41573;51.446;-2.018;2023-03-14T19:28:10;95107.59;;;5.03;100.00
55679;BME280;41573;51.446;-2.018;2023-03-14T19:30:40;95053.44;;;5.00;100.00
55679;BME280;41573;51.446;-2.018;2023-03-14T19:33:12;95042.72;;;5.02;100.00
55679;BME280;41573;51.446;-2.018;2023-03-14T19:35:50;95020.00;;;5.01;100.00
55679;BME280;41573;51.446;-2.018;2023-03-14T19:38:34;94994.81;;;4.98;100.00
55679;BME280;41573;51.446;-2.018;2023-03-14T19:41:03;95002.78;;;5.05;100.00
55679;BME280;41573;51.446;-2.018;2023-03-14T19:43:29;95012.88;;;4.95;100.00
55679;BME280;41573;51.446;-2.018;2023-03-14T19:46:04;94991.16;;;4.93;100.00
55679;BME280;41573;51.446;-2.018;2023-03-14T19:48:45;94985.88;;;4.86;100.00
55679;BME280;41573;51.446;-2.018;2023-03-14T19:51:25;94976.22;;;4.72;100.00
55679;BME280;41573;51.446;-2.018;2023-03-14T19:54:04;94950.41;;;4.60;100.00
55679;BME280;41573;51.446;-2.018;2023-03-14T19:56:41;94929.34;;;4.60;100.00
55679;BME280;41573;51.446;-2.018;2023-03-14T20:02:15;94797.63;;;4.54;100.00
55679;BME280;41573;51.446;-2.018;2023-03-14T20:04:45;94765.22;;;4.53;100.00
55679;BME280;41573;51.446;-2.018;2023-03-14T20:07:16;94716.19;;;4.52;100.00
55679;BME280;41573;51.446;-2.018;2023-03-14T20:09:48;94691.47;;;4.46;100.00
55679;BME280;41573;51.446;-2.018;2023-03-14T20:12:16;94633.13;;;4.49;100.00
55679;BME280;41573;51.446;-2.018;2023-03-14T20:14:42;94607.81;;;4.55;100.00
55679;BME280;41573;51.446;-2.018;2023-03-14T20:17:12;94549.66;;;4.57;100.00
55679;BME280;41573;51.446;-2.018;2023-03-14T20:19:38;94535.06;;;4.54;100.00
55679;BME280;41573;51.446;-2.018;2023-03-14T20:22:28;94489.31;;;4.55;100.00
55679;BME280;41573;51.446;-2.018;2023-03-14T20:25:44;94430.56;;;4.48;100.00
55679;BME280;41573;51.446;-2.018;2023-03-14T20:32:02;94409.09;;;4.44;100.00
